GII weather

Siguiri Airport
Siguiri, Kankan Region, Guinea

Public forecast

Using degrees Celsius for public forecast. Weather courtesy of forecast.io.

Closest aviation weather report (METAR) to Siguiri Airport

Report is more than 6 hours old.

Closest report is Bougouni Airport, 97.1 nm (179.8 km) E. Retrieved 2019/10/12 23:40 UTC (6 days ago):

GABG 122340Z 00000KT 9999 SCT020 24/23 Q1013

Closest aviation forecast (TAF) to Siguiri Airport

Closest forecast is Modibo Keita International Airport, 97.3 nm (180.3 km) NE. Retrieved 2019-10-19 00:00 UTC (4 hours ago):

TAF GABS 182300Z 1900/2006 23006KT 9999 FEW026 PROB40 TEMPO 1915/1918 TS FEW026 FEW033CB